map of GUC home
GUC - Airport
Location
City:  Gunnison, Colorado, United States
Name:Gunnison-Crested Butte Regional
ICAO:KGUC
IATA:GUC
FAA LID:GUC

Details
Type:Airport (Part 139 Class I)
Use:Public/Civil
Latitude:3832'04"N (38.534333)
Longitude:10655'54"W (-106.931749)
Datum:WGS 1984
Elevation:7679 ft (2341 m)
Variation:8.94E (WMM2015v2 magnetic declination)
-0.09 annual change
Runways:2
Longest:9400 × 150 ft (2865 × 45.5 m), paved

Time
Time Zone:UTC-7 (DST-6)
Local Time:

Weather
METAR:KGUC 041356Z AUTO 00000KT 10SM CLR M15/M16 A2991 RMK AO2 SLP183 T11501161 FZRANO
TAF:KGUC 041126Z 0412/0512 VRB04KT P6SM SCT060
FM041800 20006KT P6SM VCSH SCT060 BKN080
FM050000 21006KT P6SM BKN050

Related Locations
Nearby:
Farthest:RRG: 11014 mi / 17726 km
Plaine Corail [Sir Gatan Duval Airport (Plaine Corail Airport)], Rodrigues Island, MU

Find:

   beyond  
but within

Other Information
Maps:
NOTAMs:
Links:
Sources:

  
  • flag of United States
  • flag of Colorado
  

Sectional Chart

Flight Planning
at skyvector.com

Satellite Image

Google Maps Satellite view

 

Copyright © 2004-2019 Karl L. Swartz. All rights reserved.
The Great Circle Mapper name and logo are trademarks of the Great Circle Mapper.
All other trademarks mentioned herein belong to their respective owners.
Please see credits for attibutions and further copyright information.

  Follow gcmap on Facebook Follow gcmap on Twitter GCmap on LinkedIn

hCard Microformat

Geo Microformat